Time;durP1;ratioP1;P1;durP2;ratioP2;P2;SDS_P1;SDS_P2;PMS_P1;PMS_P2;Temp;Humidity;BMP_temperature;BMP_pressure;BME280_temperature;BME280_humidity;BME280_pressure;Samples;Min_cycle;Max_cycle;Signal;HPM_P1;HPM_P2
2022/01/03 00:00:19;;;;;;;0.00;0.00;;;7.80;99.90;;;;;;5164282;27;20045;-81
2022/01/03 00:02:46;;;;;;;0.00;0.00;;;7.80;99.90;;;;;;5129832;28;20076;-79
2022/01/03 00:05:13;;;;;;;0.00;0.00;;;7.80;99.90;;;;;;5129558;28;20504;-79
2022/01/03 00:07:42;;;;;;;0.00;0.00;;;7.80;99.90;;;;;;5146336;28;20083;-79
2022/01/03 00:10:11;;;;;;;0.00;0.00;;;8.20;99.90;;;;;;5146951;28;20040;-79
2022/01/03 00:12:38;;;;;;;0.00;0.00;;;7.80;99.90;;;;;;5146961;28;20061;-81
2022/01/03 00:15:08;;;;;;;0.00;0.00;;;7.80;99.90;;;;;;5130098;28;20051;-79
2022/01/03 00:17:35;;;;;;;0.00;0.00;;;7.80;99.90;;;;;;5163865;27;20032;-79
2022/01/03 00:20:03;;;;;;;0.28;0.20;;;7.80;99.90;;;;;;5146773;28;20047;-79
2022/01/03 00:22:55;;;;;;;0.10;0.10;;;7.80;99.90;;;;;;5129213;28;20389;-81
2022/01/03 00:25:24;;;;;;;0.10;0.10;;;7.80;99.90;;;;;;5164071;28;20032;-81
2022/01/03 00:28:03;;;;;;;0.00;0.00;;;7.90;99.90;;;;;;5146370;28;20468;-81
2022/01/03 00:30:35;;;;;;;0.08;0.08;;;7.90;99.90;;;;;;5180680;27;20039;-79
2022/01/03 00:33:02;;;;;;;0.00;0.00;;;8.00;99.90;;;;;;5164018;28;20174;-80
2022/01/03 00:35:31;;;;;;;0.00;0.00;;;8.00;99.90;;;;;;5147223;28;20079;-81
2022/01/03 00:38:00;;;;;;;0.00;0.00;;;8.10;99.90;;;;;;5130109;28;20039;-80
2022/01/03 00:40:27;;;;;;;0.08;0.08;;;8.10;99.90;;;;;;5146921;28;20068;-79
2022/01/03 00:42:54;;;;;;;0.00;0.00;;;8.10;99.90;;;;;;5145990;28;20131;-81
2022/01/03 00:45:20;;;;;;;0.00;0.00;;;8.20;99.90;;;;;;5129534;28;20126;-79
2022/01/03 00:47:47;;;;;;;0.00;0.00;;;8.20;99.90;;;;;;5129161;28;20032;-81
2022/01/03 00:50:17;;;;;;;0.00;0.00;;;8.30;99.90;;;;;;5129542;28;20040;-81
2022/01/03 00:52:45;;;;;;;0.10;0.10;;;8.40;99.90;;;;;;5163473;28;20043;-79
2022/01/03 00:55:12;;;;;;;0.00;0.00;;;8.30;99.90;;;;;;5146833;28;20096;-81
2022/01/03 00:58:22;;;;;;;0.00;0.00;;;8.40;99.90;;;;;;5146145;28;20043;-81
2022/01/03 01:00:54;;;;;;;0.10;0.10;;;8.50;99.90;;;;;;5067390;28;20075;-81
2022/01/03 01:03:26;;;;;;;0.10;0.10;;;8.50;99.90;;;;;;5133116;28;20150;-81
2022/01/03 01:06:03;;;;;;;0.00;0.00;;;8.70;99.90;;;;;;5180566;27;20063;-81
2022/01/03 01:08:34;;;;;;;0.00;0.00;;;8.60;99.90;;;;;;5163561;28;20377;-81
2022/01/03 01:11:04;;;;;;;0.00;0.00;;;8.60;99.90;;;;;;5163365;28;20067;-81
2022/01/03 01:13:30;;;;;;;0.00;0.00;;;8.70;99.90;;;;;;5146096;28;20047;-79
2022/01/03 01:15:57;;;;;;;0.00;0.00;;;8.70;99.90;;;;;;5147054;28;20514;-79
2022/01/03 01:18:24;;;;;;;0.00;0.00;;;8.70;99.90;;;;;;5099471;28;20404;-80
2022/01/03 01:20:51;;;;;;;0.10;0.10;;;8.80;99.90;;;;;;5132859;28;20036;-79
2022/01/03 01:23:18;;;;;;;0.00;0.00;;;8.80;99.90;;;;;;5116463;28;20035;-79
2022/01/03 01:28:15;;;;;;;0.00;0.00;;;8.80;99.90;;;;;;5150000;28;20061;-81
2022/01/03 01:30:43;;;;;;;0.00;0.00;;;8.80;99.90;;;;;;5132494;28;20036;-78
2022/01/03 01:33:15;;;;;;;0.00;0.00;;;8.80;99.90;;;;;;5099484;28;20039;-81
2022/01/03 01:35:46;;;;;;;0.00;0.00;;;8.90;99.90;;;;;;5132390;28;20048;-79
2022/01/03 01:38:16;;;;;;;0.10;0.10;;;8.80;99.90;;;;;;5132809;28;20496;-79
2022/01/03 01:40:47;;;;;;;0.00;0.00;;;8.90;99.90;;;;;;5132755;28;20085;-79
2022/01/03 01:43:18;;;;;;;0.00;0.00;;;8.80;99.90;;;;;;5132647;28;20192;-79
2022/01/03 01:45:48;;;;;;;0.03;0.03;;;8.90;99.90;;;;;;5149291;28;20039;-79
2022/01/03 01:48:16;;;;;;;0.00;0.00;;;8.90;99.90;;;;;;5132992;28;20124;-81
2022/01/03 01:50:49;;;;;;;0.08;0.08;;;8.90;99.90;;;;;;5132420;28;20040;-80
2022/01/03 01:53:21;;;;;;;0.43;0.32;;;8.80;99.90;;;;;;5132388;28;20043;-81
2022/01/03 01:55:50;;;;;;;0.00;0.00;;;8.90;99.90;;;;;;5131849;28;20126;-79
2022/01/03 01:58:34;;;;;;;0.00;0.00;;;8.90;99.90;;;;;;5149510;28;20047;-81
2022/01/03 02:01:06;;;;;;;0.00;0.00;;;8.80;99.90;;;;;;5148969;28;20147;-81
2022/01/03 02:04:02;;;;;;;0.00;0.00;;;8.90;99.90;;;;;;5132164;28;20403;-81
2022/01/03 02:06:46;;;;;;;0.00;0.00;;;8.90;99.90;;;;;;5131883;28;20051;-79
2022/01/03 02:09:41;;;;;;;0.10;0.10;;;8.90;99.90;;;;;;5131837;28;20408;-80
2022/01/03 02:12:19;;;;;;;0.00;0.00;;;8.90;99.90;;;;;;5131475;28;20567;-79
2022/01/03 02:14:51;;;;;;;0.00;0.00;;;9.00;99.90;;;;;;5131348;28;20044;-79
2022/01/03 02:17:17;;;;;;;0.10;0.10;;;8.90;99.90;;;;;;5131980;28;20075;-79
2022/01/03 02:20:07;;;;;;;0.00;0.00;;;8.90;99.90;;;;;;5114612;28;20071;-79
2022/01/03 02:22:35;;;;;;;0.00;0.00;;;9.00;99.90;;;;;;5131785;28;20036;-80
2022/01/03 02:25:03;;;;;;;0.00;0.00;;;8.90;99.90;;;;;;5131116;28;20039;-78
2022/01/03 02:27:31;;;;;;;0.00;0.00;;;8.90;99.90;;;;;;5131478;28;20039;-81
2022/01/03 02:29:58;;;;;;;0.10;0.10;;;8.90;99.90;;;;;;5148360;28;20130;-81
2022/01/03 02:32:25;;;;;;;0.00;0.00;;;9.00;99.90;;;;;;5132177;28;20082;-79
2022/01/03 02:34:52;;;;;;;0.00;0.00;;;9.00;99.90;;;;;;5097902;28;20492;-81
2022/01/03 02:37:18;;;;;;;0.10;0.10;;;8.90;99.90;;;;;;5115108;28;20040;-79
2022/01/03 02:39:45;;;;;;;0.00;0.00;;;9.40;99.90;;;;;;5131565;28;20043;-81
2022/01/03 02:42:12;;;;;;;0.00;0.00;;;9.10;99.90;;;;;;5131108;28;20044;-81
2022/01/03 02:44:43;;;;;;;0.00;0.00;;;9.00;99.90;;;;;;5131488;28;20126;-81
2022/01/03 02:47:10;;;;;;;0.00;0.00;;;9.00;99.90;;;;;;5131304;28;20448;-81
2022/01/03 02:49:36;;;;;;;0.00;0.00;;;9.00;99.90;;;;;;5131554;28;20078;-81
2022/01/03 02:52:03;;;;;;;0.00;0.00;;;9.00;99.90;;;;;;5114406;28;20035;-79
2022/01/03 02:54:30;;;;;;;0.00;0.00;;;9.00;99.90;;;;;;5114664;28;20126;-79
2022/01/03 02:56:57;;;;;;;0.00;0.00;;;9.00;99.90;;;;;;5131178;28;20047;-79
2022/01/03 02:59:23;;;;;;;0.00;0.00;;;9.00;99.90;;;;;;5131123;28;20867;-80
2022/01/03 03:01:50;;;;;;;0.00;0.00;;;9.00;99.90;;;;;;5097568;28;20122;-79
2022/01/03 03:04:17;;;;;;;0.00;0.00;;;9.20;99.90;;;;;;5098242;28;20434;-80
2022/01/03 03:06:44;;;;;;;0.00;0.00;;;9.00;99.90;;;;;;5131023;28;20173;-81
2022/01/03 03:09:12;;;;;;;0.00;0.00;;;9.00;99.90;;;;;;5113677;28;20415;-80
2022/01/03 03:11:39;;;;;;;0.00;0.00;;;9.00;99.90;;;;;;5097973;28;20100;-81
2022/01/03 03:14:06;;;;;;;0.00;0.00;;;9.00;99.90;;;;;;5147629;28;20070;-81
2022/01/03 03:16:34;;;;;;;0.00;0.00;;;9.00;99.90;;;;;;5130760;28;20071;-81
2022/01/03 03:19:01;;;;;;;0.00;0.00;;;9.00;99.90;;;;;;5113656;28;20046;-80
2022/01/03 03:21:29;;;;;;;0.10;0.10;;;9.00;99.90;;;;;;5130892;28;20039;-81
2022/01/03 03:23:58;;;;;;;0.00;0.00;;;9.00;99.90;;;;;;5130395;28;20590;-80
2022/01/03 03:26:24;;;;;;;0.00;0.00;;;9.00;99.90;;;;;;5147508;28;20035;-81
2022/01/03 03:28:51;;;;;;;0.00;0.00;;;9.00;99.90;;;;;;5131067;28;20039;-79
2022/01/03 03:31:19;;;;;;;0.00;0.00;;;9.00;99.90;;;;;;5130071;28;20040;-79
2022/01/03 03:33:45;;;;;;;0.10;0.10;;;9.00;99.90;;;;;;5130629;28;20508;-79
2022/01/03 03:36:12;;;;;;;0.00;0.00;;;9.00;99.90;;;;;;5130359;28;20039;-80
2022/01/03 03:38:39;;;;;;;0.00;0.00;;;9.00;99.90;;;;;;5096726;28;20047;-79
2022/01/03 03:41:05;;;;;;;0.00;0.00;;;9.00;99.90;;;;;;5112504;28;20046;-79
2022/01/03 03:43:32;;;;;;;0.00;0.00;;;9.00;99.90;;;;;;5113413;28;20043;-81
2022/01/03 03:45:59;;;;;;;0.00;0.00;;;9.00;99.90;;;;;;5129863;28;20031;-81
2022/01/03 03:48:26;;;;;;;0.00;0.00;;;9.00;99.90;;;;;;5170007;27;20036;-78
2022/01/03 03:50:52;;;;;;;0.00;0.00;;;9.00;99.90;;;;;;5127345;28;20405;-80
2022/01/03 03:53:20;;;;;;;0.00;0.00;;;9.00;99.90;;;;;;5112453;28;20071;-78
2022/01/03 03:55:48;;;;;;;0.10;0.10;;;8.90;99.90;;;;;;5129625;28;20051;-79
2022/01/03 03:58:15;;;;;;;0.00;0.00;;;8.90;99.90;;;;;;5112879;28;20118;-81
2022/01/03 04:00:42;;;;;;;0.00;0.00;;;8.90;99.90;;;;;;5096595;28;20122;-79
2022/01/03 04:03:08;;;;;;;0.03;0.03;;;8.90;99.90;;;;;;5112993;28;20035;-81
2022/01/03 04:05:35;;;;;;;0.00;0.00;;;8.90;99.90;;;;;;5096522;28;20030;-80
2022/01/03 04:08:02;;;;;;;0.00;0.00;;;8.90;99.90;;;;;;5129722;28;20458;-80
2022/01/03 04:10:29;;;;;;;0.00;0.00;;;8.90;99.90;;;;;;5129997;28;20039;-80
2022/01/03 04:12:56;;;;;;;0.00;0.00;;;8.90;99.90;;;;;;5113542;28;20043;-79
2022/01/03 04:15:22;;;;;;;0.00;0.00;;;8.80;99.90;;;;;;5096168;28;20450;-80
2022/01/03 04:17:49;;;;;;;0.00;0.00;;;8.80;99.90;;;;;;5113184;28;20039;-81
2022/01/03 04:20:18;;;;;;;0.00;0.00;;;8.80;99.90;;;;;;5095905;28;20071;-79
2022/01/03 04:22:45;;;;;;;0.00;0.00;;;8.80;99.90;;;;;;5096581;28;20126;-80
2022/01/03 04:25:12;;;;;;;0.00;0.00;;;8.80;99.90;;;;;;5112952;28;20130;-79
2022/01/03 04:27:39;;;;;;;0.00;0.00;;;8.80;99.90;;;;;;5113462;28;20032;-80
2022/01/03 04:30:06;;;;;;;0.00;0.00;;;8.70;99.90;;;;;;5146347;28;20507;-80
2022/01/03 04:32:33;;;;;;;0.25;0.25;;;8.70;99.90;;;;;;5146903;28;20134;-80
2022/01/03 04:35:00;;;;;;;0.00;0.00;;;8.70;99.90;;;;;;5112704;28;20752;-79
2022/01/03 04:37:26;;;;;;;0.00;0.00;;;8.70;99.90;;;;;;5129212;28;20039;-79
2022/01/03 04:39:53;;;;;;;0.00;0.00;;;8.60;99.90;;;;;;5130003;28;20039;-79
2022/01/03 04:42:20;;;;;;;0.08;0.08;;;8.70;99.90;;;;;;5129537;28;20365;-79
2022/01/03 04:44:46;;;;;;;0.00;0.00;;;8.70;99.90;;;;;;5096157;28;20039;-79
2022/01/03 04:47:13;;;;;;;0.05;0.05;;;8.60;99.90;;;;;;5129649;28;20036;-80
2022/01/03 04:49:41;;;;;;;0.00;0.00;;;8.70;99.90;;;;;;5096603;28;20040;-79
2022/01/03 04:52:07;;;;;;;0.00;0.00;;;8.70;99.90;;;;;;5132439;28;20038;-79
2022/01/03 04:54:34;;;;;;;0.00;0.00;;;8.70;99.90;;;;;;5134265;28;20563;-80
2022/01/03 04:57:01;;;;;;;0.00;0.00;;;8.80;99.90;;;;;;5133377;28;20495;-79
2022/01/03 04:59:28;;;;;;;0.08;0.08;;;8.80;99.90;;;;;;5116623;28;20046;-81
2022/01/03 05:01:54;;;;;;;0.00;0.00;;;8.80;99.90;;;;;;5133680;28;20046;-79
2022/01/03 05:04:21;;;;;;;0.00;0.00;;;8.80;99.90;;;;;;5150091;28;20376;-81
2022/01/03 05:06:48;;;;;;;0.03;0.03;;;8.80;99.90;;;;;;5133224;28;20113;-79
2022/01/03 05:09:14;;;;;;;0.00;0.00;;;8.80;99.90;;;;;;5132887;28;20556;-80
2022/01/03 05:11:42;;;;;;;0.00;0.00;;;8.80;99.90;;;;;;5133337;28;20123;-79
2022/01/03 05:14:08;;;;;;;0.00;0.00;;;8.80;99.90;;;;;;5116180;28;20122;-80
2022/01/03 05:16:36;;;;;;;0.00;0.00;;;8.90;99.90;;;;;;5150187;28;20127;-79
2022/01/03 05:19:03;;;;;;;0.00;0.00;;;8.90;99.90;;;;;;5149935;28;20039;-79
2022/01/03 05:21:29;;;;;;;0.00;0.00;;;8.90;99.90;;;;;;5132665;28;20048;-79
2022/01/03 05:23:56;;;;;;;0.10;0.10;;;8.90;99.90;;;;;;5099484;28;20040;-81
2022/01/03 05:26:23;;;;;;;0.00;0.00;;;8.90;99.90;;;;;;5099564;28;20043;-81
2022/01/03 05:28:49;;;;;;;0.00;0.00;;;8.80;99.90;;;;;;5115965;28;20407;-78
2022/01/03 05:31:16;;;;;;;0.00;0.00;;;8.80;99.90;;;;;;5099127;28;20039;-80
2022/01/03 05:33:43;;;;;;;0.00;0.00;;;8.80;99.90;;;;;;5099274;28;20572;-81
2022/01/03 05:36:10;;;;;;;0.00;0.00;;;8.90;99.90;;;;;;5133158;28;20048;-79
2022/01/03 05:38:36;;;;;;;0.00;0.00;;;8.90;99.90;;;;;;5132649;28;20043;-80
2022/01/03 05:41:03;;;;;;;0.00;0.00;;;8.80;99.90;;;;;;5132786;28;20495;-79
2022/01/03 05:43:30;;;;;;;0.00;0.00;;;8.90;99.90;;;;;;5131902;28;20035;-79
2022/01/03 05:45:56;;;;;;;0.05;0.05;;;8.80;99.90;;;;;;5133031;28;20039;-78
2022/01/03 05:48:23;;;;;;;0.00;0.00;;;8.80;99.90;;;;;;5115700;28;20377;-78
2022/01/03 05:50:50;;;;;;;0.00;0.00;;;8.90;99.90;;;;;;5098994;28;20535;-79
2022/01/03 05:53:16;;;;;;;0.00;0.00;;;8.90;99.90;;;;;;5115355;28;20126;-80
2022/01/03 05:55:44;;;;;;;0.00;0.00;;;8.80;99.90;;;;;;5132168;28;20039;-79
2022/01/03 05:58:11;;;;;;;0.00;0.00;;;8.80;99.90;;;;;;5132562;28;20075;-81
2022/01/03 06:00:38;;;;;;;0.00;0.00;;;8.80;99.90;;;;;;5115574;28;20082;-79
2022/01/03 06:03:05;;;;;;;0.00;0.00;;;8.80;99.90;;;;;;5114836;28;20032;-78
2022/01/03 06:08:04;;;;;;;0.00;0.00;;;8.80;99.90;;;;;;5133100;28;20039;-81
2022/01/03 06:10:32;;;;;;;0.00;0.00;;;8.80;99.90;;;;;;5131760;28;20035;-80
2022/01/03 06:12:59;;;;;;;0.00;0.00;;;8.70;99.90;;;;;;5099122;28;20046;-78
2022/01/03 06:15:25;;;;;;;0.10;0.10;;;8.70;99.90;;;;;;5114681;28;20474;-79
2022/01/03 06:17:53;;;;;;;0.10;0.10;;;8.70;99.90;;;;;;5098322;28;20057;-79
2022/01/03 06:20:20;;;;;;;0.00;0.00;;;8.90;99.90;;;;;;5131918;28;20077;-79
2022/01/03 06:22:47;;;;;;;0.10;0.10;;;8.70;99.90;;;;;;5114685;28;20508;-78
2022/01/03 06:25:13;;;;;;;0.00;0.00;;;8.80;99.90;;;;;;5131649;28;20145;-80
2022/01/03 06:27:40;;;;;;;0.00;0.00;;;8.80;99.90;;;;;;5114903;28;20035;-79
2022/01/03 06:30:08;;;;;;;0.00;0.00;;;8.80;99.90;;;;;;5131606;28;20842;-80
2022/01/03 06:32:36;;;;;;;0.00;0.00;;;8.80;99.90;;;;;;5114439;28;20050;-79
2022/01/03 06:35:03;;;;;;;0.00;0.00;;;8.80;99.90;;;;;;5148718;28;20492;-79
2022/01/03 06:37:30;;;;;;;0.00;0.00;;;8.80;99.90;;;;;;5148484;28;20133;-78
2022/01/03 06:39:56;;;;;;;0.00;0.00;;;8.80;99.90;;;;;;5131816;28;20126;-81
2022/01/03 06:42:23;;;;;;;0.00;0.00;;;8.80;99.90;;;;;;5114316;28;20051;-80
2022/01/03 06:44:50;;;;;;;0.00;0.00;;;9.20;99.90;;;;;;5133924;28;20035;-81
2022/01/03 06:47:17;;;;;;;0.00;0.00;;;8.80;99.90;;;;;;5131362;28;20039;-79
2022/01/03 06:49:45;;;;;;;0.05;0.05;;;8.80;99.90;;;;;;5130945;28;20046;-79
2022/01/03 06:52:12;;;;;;;0.00;0.00;;;8.80;99.90;;;;;;5131223;28;20035;-81
2022/01/03 06:54:38;;;;;;;0.00;0.00;;;8.70;99.90;;;;;;5097614;28;20065;-79
2022/01/03 06:57:05;;;;;;;0.08;0.08;;;8.60;99.90;;;;;;5131168;28;20377;-80
2022/01/03 06:59:32;;;;;;;0.00;0.00;;;8.70;99.90;;;;;;5130746;28;20040;-80
2022/01/03 07:01:59;;;;;;;0.10;0.10;;;8.70;99.90;;;;;;5131414;28;20040;-79
2022/01/03 07:04:26;;;;;;;0.10;0.10;;;8.70;99.90;;;;;;5131055;28;20793;-79
2022/01/03 07:06:52;;;;;;;0.00;0.00;;;8.70;99.90;;;;;;5097496;28;20102;-78
2022/01/03 07:09:19;;;;;;;0.10;0.10;;;8.70;99.90;;;;;;5131200;28;20471;-80
2022/01/03 07:11:46;;;;;;;0.10;0.10;;;8.70;99.90;;;;;;5147862;28;20036;-81
2022/01/03 07:19:35;;;;;;;0.00;0.00;;;8.60;99.90;;;;;;5132936;28;20040;-80
2022/01/03 07:22:04;;;;;;;0.00;0.00;;;8.60;99.90;;;;;;5130752;28;20054;-81
2022/01/03 07:24:32;;;;;;;0.10;0.10;;;8.60;99.90;;;;;;5130824;28;20088;-79
2022/01/03 07:27:04;;;;;;;0.00;0.00;;;8.60;99.90;;;;;;5130773;28;20096;-80
2022/01/03 07:29:31;;;;;;;0.00;0.00;;;8.60;99.90;;;;;;5130366;28;20123;-79
2022/01/03 07:31:58;;;;;;;0.00;0.00;;;8.70;99.90;;;;;;5129937;28;20044;-80
2022/01/03 07:34:25;;;;;;;0.10;0.10;;;8.60;99.90;;;;;;5113085;28;20043;-81
2022/01/03 07:36:51;;;;;;;0.00;0.00;;;8.60;99.90;;;;;;5112554;28;20039;-79
2022/01/03 07:39:18;;;;;;;0.00;0.00;;;8.70;99.90;;;;;;5129294;28;20405;-78
2022/01/03 07:41:45;;;;;;;0.00;0.00;;;8.70;99.90;;;;;;5137824;28;20040;-81
2022/01/03 07:44:12;;;;;;;0.00;0.00;;;8.70;99.90;;;;;;5128917;28;20065;-80
2022/01/03 07:46:39;;;;;;;0.00;0.00;;;8.70;99.90;;;;;;5112035;28;20036;-79
2022/01/03 07:49:05;;;;;;;0.00;0.00;;;8.70;99.90;;;;;;5136742;28;20224;-79
2022/01/03 07:51:32;;;;;;;0.00;0.00;;;8.80;99.90;;;;;;5142137;28;20032;-80
2022/01/03 07:53:59;;;;;;;0.00;0.00;;;8.80;99.90;;;;;;5130622;28;20044;-81
2022/01/03 07:56:26;;;;;;;2.05;0.32;;;8.70;99.90;;;;;;5123106;28;20043;-81
2022/01/03 07:58:52;;;;;;;0.00;0.00;;;8.80;99.90;;;;;;5129398;28;20047;-79
2022/01/03 08:01:19;;;;;;;0.00;0.00;;;8.80;99.90;;;;;;5129541;28;20159;-79
2022/01/03 08:03:46;;;;;;;0.00;0.00;;;8.80;99.90;;;;;;5095883;28;20044;-81
2022/01/03 08:06:12;;;;;;;0.08;0.08;;;8.90;99.90;;;;;;5146949;28;20062;-79
2022/01/03 08:08:39;;;;;;;0.08;0.08;;;8.80;99.90;;;;;;5113062;28;20054;-81
2022/01/03 08:11:06;;;;;;;0.00;0.00;;;8.80;99.90;;;;;;5129858;28;20040;-80
2022/01/03 08:13:33;;;;;;;0.00;0.00;;;8.90;99.90;;;;;;5129922;28;20051;-79
2022/01/03 08:15:59;;;;;;;0.00;0.00;;;8.90;99.90;;;;;;5130389;28;20043;-81
2022/01/03 08:18:26;;;;;;;0.00;0.00;;;8.80;99.90;;;;;;5113494;28;20046;-81
2022/01/03 08:20:53;;;;;;;0.03;0.03;;;8.80;99.90;;;;;;5130051;28;20472;-79
2022/01/03 08:23:20;;;;;;;0.00;0.00;;;8.90;99.90;;;;;;5114302;28;20040;-81
2022/01/03 08:25:47;;;;;;;0.00;0.00;;;8.90;99.90;;;;;;5105288;28;20032;-80
2022/01/03 08:28:14;;;;;;;0.10;0.10;;;8.90;99.90;;;;;;5129528;28;20047;-79
2022/01/03 08:30:41;;;;;;;0.00;0.00;;;9.10;99.90;;;;;;5180285;27;20047;-80
2022/01/03 08:33:08;;;;;;;0.00;0.00;;;8.90;99.90;;;;;;5154924;28;20039;-82
2022/01/03 08:35:35;;;;;;;0.15;0.10;;;8.90;99.90;;;;;;5129316;28;20040;-83
2022/01/03 08:38:04;;;;;;;0.00;0.00;;;8.90;99.90;;;;;;5138903;28;20043;-79
2022/01/03 08:40:31;;;;;;;0.00;0.00;;;8.90;99.90;;;;;;5117800;28;20492;-79
2022/01/03 08:42:59;;;;;;;0.10;0.10;;;9.00;99.90;;;;;;5129371;28;20040;-82
2022/01/03 08:45:27;;;;;;;0.00;0.00;;;9.00;99.90;;;;;;5129379;28;20035;-79
2022/01/03 08:47:54;;;;;;;0.00;0.00;;;9.00;99.90;;;;;;5146167;28;20043;-79
2022/01/03 08:50:20;;;;;;;0.00;0.00;;;9.00;99.90;;;;;;5096810;28;20434;-79
2022/01/03 08:52:48;;;;;;;0.00;0.00;;;9.10;99.90;;;;;;5125660;28;20400;-80
2022/01/03 08:55:15;;;;;;;0.00;0.00;;;9.10;99.90;;;;;;5130798;28;20040;-82
2022/01/03 08:57:43;;;;;;;0.00;0.00;;;9.10;99.90;;;;;;5108931;28;20040;-83
2022/01/03 09:00:11;;;;;;;0.10;0.10;;;9.10;99.90;;;;;;5092532;28;20040;-84
2022/01/03 09:02:38;;;;;;;0.00;0.00;;;9.10;99.90;;;;;;5108767;28;20519;-81
2022/01/03 09:05:05;;;;;;;0.00;0.00;;;9.10;99.90;;;;;;5109557;28;20036;-84
2022/01/03 09:07:31;;;;;;;0.00;0.00;;;9.10;99.90;;;;;;5108560;28;20405;-80
2022/01/03 09:09:58;;;;;;;0.00;0.00;;;9.10;99.90;;;;;;5092010;28;20044;-84
2022/01/03 09:12:25;;;;;;;0.00;0.00;;;9.10;99.90;;;;;;5111098;28;20050;-81
2022/01/03 09:14:53;;;;;;;0.00;0.00;;;9.10;99.90;;;;;;5112136;28;20126;-84
2022/01/03 09:17:20;;;;;;;0.00;0.00;;;9.20;99.90;;;;;;5094908;28;20519;-84
2022/01/03 09:19:47;;;;;;;0.00;0.00;;;9.20;99.90;;;;;;5112125;28;20043;-84
2022/01/03 09:22:18;;;;;;;0.80;0.80;;;9.20;99.90;;;;;;5128774;28;20400;-83
2022/01/03 09:30:13;;;;;;;0.00;0.00;;;9.30;99.90;;;;;;5131894;28;20036;-79
2022/01/03 09:32:40;;;;;;;0.00;0.00;;;9.30;99.90;;;;;;5129267;28;20036;-79
2022/01/03 09:35:08;;;;;;;0.00;0.00;;;9.30;99.90;;;;;;5114588;28;20032;-84
2022/01/03 09:37:35;;;;;;;0.00;0.00;;;9.30;99.90;;;;;;5129900;28;20513;-79
2022/01/03 09:40:05;;;;;;;0.00;0.00;;;9.30;99.90;;;;;;5151814;28;20130;-80
2022/01/03 09:42:34;;;;;;;0.00;0.00;;;9.30;99.90;;;;;;5131956;28;20039;-80
2022/01/03 09:45:07;;;;;;;0.00;0.00;;;9.30;99.90;;;;;;5131331;28;20036;-80
2022/01/03 09:47:39;;;;;;;0.00;0.00;;;9.30;99.90;;;;;;5158030;27;20044;-81
2022/01/03 09:50:07;;;;;;;0.00;0.00;;;9.30;99.90;;;;;;5131803;28;20509;-83
2022/01/03 09:52:36;;;;;;;0.00;0.00;;;9.30;99.90;;;;;;5149662;27;20046;-80
2022/01/03 09:55:03;;;;;;;0.00;0.00;;;9.30;99.90;;;;;;5131700;28;20949;-83
2022/01/03 09:57:30;;;;;;;0.15;0.15;;;9.40;99.90;;;;;;5149397;28;20065;-83
2022/01/03 09:59:59;;;;;;;0.00;0.00;;;9.40;99.90;;;;;;5131642;28;20044;-83
2022/01/03 10:02:27;;;;;;;0.00;0.00;;;9.40;99.90;;;;;;5115564;28;20071;-80
2022/01/03 10:04:54;;;;;;;0.00;0.00;;;9.40;99.90;;;;;;5114691;28;20058;-83
2022/01/03 10:07:21;;;;;;;0.00;0.00;;;9.40;99.90;;;;;;5114914;28;20051;-82
2022/01/03 10:09:48;;;;;;;0.10;0.10;;;9.40;99.90;;;;;;5131344;28;20086;-80
2022/01/03 10:12:17;;;;;;;0.00;0.00;;;9.40;99.90;;;;;;5132425;28;20035;-80
2022/01/03 10:14:44;;;;;;;0.00;0.00;;;9.50;99.90;;;;;;5115154;28;20039;-81
2022/01/03 10:17:11;;;;;;;0.00;0.00;;;9.40;99.90;;;;;;5131759;28;20531;-84
2022/01/03 10:19:56;;;;;;;0.00;0.00;;;9.40;99.90;;;;;;5148711;28;20079;-80
2022/01/03 10:22:28;;;;;;;0.00;0.00;;;9.50;99.90;;;;;;5148269;28;20829;-83
2022/01/03 10:24:59;;;;;;;0.03;0.03;;;9.40;99.90;;;;;;5131132;28;20039;-80
2022/01/03 10:27:43;;;;;;;0.00;0.00;;;9.50;99.90;;;;;;5131466;28;20039;-83
2022/01/03 10:30:10;;;;;;;0.00;0.00;;;9.50;99.90;;;;;;5131391;28;20047;-82
2022/01/03 10:32:37;;;;;;;0.00;0.00;;;9.50;99.90;;;;;;5131506;28;20103;-80
2022/01/03 10:35:17;;;;;;;0.00;0.00;;;9.60;99.90;;;;;;5114474;28;20071;-82
2022/01/03 10:37:44;;;;;;;0.00;0.00;;;9.60;99.90;;;;;;5138937;28;20043;-80
2022/01/03 10:40:17;;;;;;;0.00;0.00;;;9.60;99.90;;;;;;5160678;27;20035;-80
2022/01/03 10:42:44;;;;;;;0.13;0.13;;;9.50;99.90;;;;;;5111118;28;20428;-80
2022/01/03 10:45:10;;;;;;;0.00;0.00;;;9.50;99.90;;;;;;5110491;28;20044;-82
2022/01/03 10:47:41;;;;;;;0.00;0.00;;;9.50;99.90;;;;;;5113112;28;20077;-79
2022/01/03 10:50:17;;;;;;;0.00;0.00;;;9.50;99.90;;;;;;5148743;27;20078;-80
2022/01/03 10:52:46;;;;;;;0.00;0.00;;;9.50;99.90;;;;;;5147522;28;20132;-80
2022/01/03 10:55:29;;;;;;;0.00;0.00;;;9.50;99.90;;;;;;5111042;28;20400;-82
2022/01/03 10:57:57;;;;;;;0.00;0.00;;;9.50;99.90;;;;;;5164538;27;20053;-83
2022/01/03 11:00:39;;;;;;;0.00;0.00;;;9.50;99.90;;;;;;5113910;28;20110;-82
2022/01/03 11:03:38;;;;;;;0.00;0.00;;;9.50;99.90;;;;;;5144078;28;20453;-81
2022/01/03 11:06:24;;;;;;;0.00;0.00;;;9.60;99.90;;;;;;5128229;28;20535;-80
2022/01/03 11:11:42;;;;;;;0.00;0.00;;;9.50;99.90;;;;;;5132731;28;20048;-82
2022/01/03 11:14:28;;;;;;;0.00;0.00;;;9.60;99.90;;;;;;5130793;28;20036;-82
2022/01/03 11:16:55;;;;;;;0.00;0.00;;;9.60;99.90;;;;;;5147078;28;20122;-83
2022/01/03 11:19:38;;;;;;;0.00;0.00;;;9.60;99.90;;;;;;5130745;28;20134;-83
2022/01/03 11:22:06;;;;;;;0.00;0.00;;;9.70;99.90;;;;;;5146701;28;20500;-83
2022/01/03 11:24:45;;;;;;;0.00;0.00;;;9.70;99.90;;;;;;5130417;28;20120;-82
2022/01/03 11:27:12;;;;;;;0.00;0.00;;;9.70;99.90;;;;;;5129719;28;20074;-80
2022/01/03 11:29:39;;;;;;;0.00;0.00;;;9.70;99.90;;;;;;5130361;28;20067;-80
2022/01/03 11:32:06;;;;;;;0.10;0.10;;;9.70;99.90;;;;;;5112858;28;20039;-83
2022/01/03 11:34:33;;;;;;;0.00;0.00;;;9.80;99.90;;;;;;5113485;28;20046;-82
2022/01/03 11:37:03;;;;;;;0.00;0.00;;;9.70;99.90;;;;;;5146611;28;20055;-82
2022/01/03 11:39:32;;;;;;;0.00;0.00;;;9.70;99.90;;;;;;5147365;28;20046;-80
2022/01/03 11:41:59;;;;;;;0.00;0.00;;;9.70;99.90;;;;;;5129969;28;20031;-80
2022/01/03 11:44:26;;;;;;;0.00;0.00;;;9.70;99.90;;;;;;5113896;28;20561;-78
2022/01/03 11:46:53;;;;;;;0.00;0.00;;;9.70;99.90;;;;;;5131946;28;20040;-82
2022/01/03 11:49:19;;;;;;;0.00;0.00;;;9.80;99.90;;;;;;5130611;28;20119;-82
2022/01/03 11:51:47;;;;;;;0.10;0.10;;;9.80;99.90;;;;;;5096665;28;20484;-83
2022/01/03 11:54:16;;;;;;;0.00;0.00;;;9.80;99.90;;;;;;5129861;28;20159;-80
2022/01/03 11:56:48;;;;;;;0.00;0.00;;;9.80;99.90;;;;;;5129865;28;20112;-83
2022/01/03 12:04:39;;;;;;;0.10;0.10;;;9.80;99.90;;;;;;5166320;27;20054;-82
2022/01/03 12:07:15;;;;;;;0.10;0.10;;;9.80;99.90;;;;;;5108582;28;20056;-83
2022/01/03 12:09:54;;;;;;;0.00;0.00;;;9.80;99.90;;;;;;5151665;27;20036;-83
2022/01/03 12:12:39;;;;;;;0.00;0.00;;;9.90;99.90;;;;;;5130075;28;20044;-82
2022/01/03 12:15:35;;;;;;;0.00;0.00;;;9.80;99.90;;;;;;5129271;28;20058;-83
2022/01/03 12:18:02;;;;;;;0.00;0.00;;;9.80;99.90;;;;;;5129055;28;20043;-83
2022/01/03 12:20:43;;;;;;;0.00;0.00;;;9.80;99.90;;;;;;5150521;27;20047;-83
2022/01/03 12:23:10;;;;;;;0.00;0.00;;;9.80;99.90;;;;;;5153089;27;20135;-79
2022/01/03 12:25:38;;;;;;;0.00;0.00;;;9.80;99.90;;;;;;5149224;28;20124;-80
2022/01/03 12:28:07;;;;;;;0.00;0.00;;;9.80;99.90;;;;;;5143249;28;20048;-80
2022/01/03 12:30:36;;;;;;;0.00;0.00;;;9.80;99.90;;;;;;5093189;28;20032;-83
2022/01/03 12:33:06;;;;;;;0.00;0.00;;;9.90;99.90;;;;;;5109364;28;20071;-79
2022/01/03 12:35:34;;;;;;;0.00;0.00;;;9.90;99.90;;;;;;5125981;28;20496;-83
2022/01/03 12:38:04;;;;;;;0.00;0.00;;;9.90;99.90;;;;;;5109033;28;20040;-80
2022/01/03 12:40:37;;;;;;;0.10;0.10;;;10.00;99.90;;;;;;5109321;28;20126;-80
2022/01/03 12:43:10;;;;;;;0.00;0.00;;;10.00;99.90;;;;;;5143950;28;20044;-82
2022/01/03 12:45:36;;;;;;;0.00;0.00;;;10.10;99.90;;;;;;5129741;28;20034;-79
2022/01/03 12:48:14;;;;;;;0.00;0.00;;;10.10;99.90;;;;;;5153508;28;20115;-80
2022/01/03 12:50:41;;;;;;;0.00;0.00;;;10.10;99.90;;;;;;5129321;28;20119;-82
2022/01/03 12:53:10;;;;;;;0.00;0.00;;;10.00;99.90;;;;;;5159428;28;20130;-79
2022/01/03 12:55:37;;;;;;;0.00;0.00;;;10.10;99.90;;;;;;5163851;28;20065;-83
2022/01/03 12:58:24;;;;;;;0.00;0.00;;;10.00;99.90;;;;;;5163329;28;20035;-82
2022/01/03 13:00:52;;;;;;;0.00;0.00;;;10.10;99.90;;;;;;5163739;27;20044;-83
2022/01/03 13:03:32;;;;;;;0.00;0.00;;;10.10;99.90;;;;;;5163403;28;20036;-82
2022/01/03 13:06:12;;;;;;;0.00;0.00;;;10.10;99.90;;;;;;5162705;28;20399;-80
2022/01/03 13:08:48;;;;;;;0.00;0.00;;;10.10;99.90;;;;;;5129102;28;20047;-83
2022/01/03 13:11:16;;;;;;;;;;;10.20;99.90;;;;;;5146770;28;20035;-80
2022/01/03 13:13:46;;;;;;;0.00;0.00;;;10.20;99.90;;;;;;5150186;28;19919;-82
2022/01/03 13:16:21;;;;;;;0.00;0.00;;;10.10;99.90;;;;;;5167318;27;20039;-80
2022/01/03 13:18:56;;;;;;;0.00;0.00;;;10.20;99.90;;;;;;5149984;28;20047;-83
2022/01/03 13:21:25;;;;;;;0.08;0.08;;;10.20;99.90;;;;;;5166520;27;20039;-83
2022/01/03 13:23:57;;;;;;;0.00;0.00;;;10.20;99.90;;;;;;5132781;28;20045;-83
2022/01/03 13:26:26;;;;;;;0.00;0.00;;;10.20;99.90;;;;;;5167238;27;20487;-83
2022/01/03 13:28:55;;;;;;;0.00;0.00;;;10.20;99.90;;;;;;5149329;28;20050;-80
2022/01/03 13:31:23;;;;;;;0.00;0.00;;;10.20;99.90;;;;;;5149367;28;20040;-79